createdAt,value
2022-11-24T00:02:51.989Z,6.53
2022-11-24T00:07:56.688Z,5.60
2022-11-24T00:13:02.434Z,6.85
2022-11-24T00:18:06.145Z,6.55
2022-11-24T00:23:11.211Z,6.72
2022-11-24T00:28:14.916Z,6.53
2022-11-24T00:33:18.240Z,6.00
2022-11-24T00:38:21.538Z,6.88
2022-11-24T00:43:25.042Z,7.18
2022-11-24T00:48:28.697Z,6.57
2022-11-24T00:53:32.427Z,7.25
2022-11-24T00:58:39.391Z,5.93
2022-11-24T01:03:43.235Z,6.63
2022-11-24T01:08:47.364Z,6.00
2022-11-24T01:13:56.887Z,6.93
2022-11-24T01:19:01.467Z,5.95
2022-11-24T01:24:05.570Z,5.65
2022-11-24T01:29:11.586Z,7.47
2022-11-24T01:34:14.985Z,6.35
2022-11-24T01:39:18.437Z,6.30
2022-11-24T01:44:28.820Z,6.28
2022-11-24T01:49:41.408Z,6.68
2022-11-24T01:54:50.494Z,7.25
2022-11-24T02:00:02.767Z,6.30
2022-11-24T02:05:28.593Z,6.43
2022-11-24T02:10:32.067Z,6.22
2022-11-24T02:15:36.039Z,6.53
2022-11-24T02:20:39.555Z,6.88
2022-11-24T02:25:58.381Z,7.57
2022-11-24T02:31:02.687Z,7.07
2022-11-24T02:36:06.462Z,6.82
2022-11-24T02:41:14.386Z,7.10
2022-11-24T02:46:17.932Z,6.63
2022-11-24T02:51:21.357Z,7.30
2022-11-24T02:56:28.494Z,7.82
2022-11-24T03:01:32.071Z,7.00
2022-11-24T03:06:36.475Z,7.03
2022-11-24T03:11:39.859Z,8.98
2022-11-24T03:16:43.604Z,6.68
2022-11-24T03:21:46.970Z,7.00
2022-11-24T03:26:50.685Z,6.78
2022-11-24T03:31:54.520Z,7.65
2022-11-24T03:37:04.350Z,8.35
2022-11-24T03:42:07.622Z,7.40
2022-11-24T03:47:12.198Z,7.93
2022-11-24T03:52:15.508Z,6.68
2022-11-24T03:57:18.905Z,6.93
2022-11-24T04:02:22.474Z,6.50
2022-11-24T04:07:25.833Z,7.05
2022-11-24T04:12:29.242Z,6.50
2022-11-24T04:17:32.534Z,7.65
2022-11-24T04:22:35.936Z,7.03
2022-11-24T04:27:40.537Z,7.35
2022-11-24T04:32:44.236Z,7.53
2022-11-24T04:37:50.227Z,6.80
2022-11-24T04:42:54.988Z,9.32
2022-11-24T04:47:58.652Z,8.48
2022-11-24T04:53:03.610Z,9.77
2022-11-24T04:58:13.590Z,9.13
2022-11-24T05:03:18.245Z,8.88
2022-11-24T05:08:21.673Z,9.25
2022-11-24T05:13:24.980Z,9.13
2022-11-24T05:18:28.423Z,9.73
2022-11-24T05:23:31.867Z,10.45
2022-11-24T05:28:35.259Z,9.43
2022-11-24T05:33:39.959Z,10.77
2022-11-24T05:38:43.198Z,11.23
2022-11-24T05:43:46.765Z,12.00
2022-11-24T05:48:51.464Z,11.23
2022-11-24T05:53:55.698Z,11.77
2022-11-24T05:58:59.251Z,12.55
2022-11-24T06:04:02.808Z,14.23
2022-11-24T06:09:06.216Z,12.95
2022-11-24T06:14:11.472Z,11.48
2022-11-24T06:19:15.154Z,10.93
2022-11-24T06:24:18.662Z,11.73
2022-11-24T06:29:21.919Z,11.13
2022-11-24T06:34:25.297Z,10.98
2022-11-24T06:39:29.155Z,11.15
2022-11-24T06:44:37.122Z,11.25
2022-11-24T06:49:41.114Z,11.43
2022-11-24T06:54:44.498Z,13.32
2022-11-24T06:59:47.844Z,12.48
2022-11-24T07:04:54.956Z,13.60
2022-11-24T07:09:58.617Z,13.45
2022-11-24T07:15:02.445Z,11.90
2022-11-24T07:20:08.361Z,13.85
2022-11-24T07:25:11.681Z,12.55
2022-11-24T07:30:15.778Z,12.70
2022-11-24T07:35:19.214Z,12.98
2022-11-24T07:40:23.269Z,12.65
2022-11-24T07:45:26.775Z,13.25
2022-11-24T07:50:30.421Z,13.75
2022-11-24T07:55:33.752Z,14.55
2022-11-24T08:00:37.139Z,14.70
2022-11-24T08:06:00.710Z,14.60
2022-11-24T08:11:08.918Z,13.43
2022-11-24T08:16:18.233Z,15.95
2022-11-24T08:21:23.459Z,13.73
2022-11-24T08:26:31.152Z,13.43
2022-11-24T08:31:35.945Z,12.68
2022-11-24T08:36:39.398Z,12.07
2022-11-24T08:41:43.465Z,10.52
2022-11-24T08:46:46.867Z,10.95
2022-11-24T08:51:50.270Z,7.15
2022-11-24T08:56:53.661Z,7.15
2022-11-24T09:01:57.313Z,4.85
2022-11-24T09:07:01.110Z,5.03
2022-11-24T09:12:05.826Z,4.22
2022-11-24T09:17:12.397Z,5.20
2022-11-24T09:22:17.272Z,4.35
2022-11-24T09:27:20.613Z,3.85
2022-11-24T09:32:24.056Z,3.10
2022-11-24T09:37:32.435Z,3.20
2022-11-24T09:42:58.383Z,3.13
2022-11-24T09:48:21.790Z,2.08
2022-11-24T09:53:37.143Z,2.63
2022-11-24T09:59:07.494Z,2.28
2022-11-24T10:04:24.047Z,2.90
2022-11-24T10:09:44.768Z,3.00
2022-11-24T10:15:20.087Z,2.85
2022-11-24T10:20:41.800Z,2.70
2022-11-24T10:26:29.523Z,4.27
2022-11-24T10:31:39.680Z,4.82
2022-11-24T10:37:01.803Z,3.25
2022-11-24T10:42:33.956Z,3.67
2022-11-24T10:47:39.026Z,3.33
2022-11-24T10:52:47.554Z,4.43
2022-11-24T10:57:51.880Z,4.10
2022-11-24T11:03:21.360Z,4.00
2022-11-24T11:08:27.958Z,3.38
2022-11-24T11:13:31.855Z,3.22
2022-11-24T11:18:36.698Z,4.20
2022-11-24T11:23:41.044Z,1.85
2022-11-24T11:31:15.228Z,1.55
2022-11-24T11:34:29.856Z,1.70
2022-11-24T11:39:38.010Z,1.52
2022-11-24T11:44:53.128Z,1.40
2022-11-24T11:49:58.041Z,1.67
2022-11-24T11:55:46.548Z,1.63
2022-11-24T12:01:16.246Z,1.50
2022-11-24T12:06:48.521Z,1.27
2022-11-24T12:12:10.355Z,1.13
2022-11-24T12:17:31.875Z,1.23
2022-11-24T12:22:55.615Z,1.47
2022-11-24T12:28:30.714Z,1.15
2022-11-24T12:34:00.968Z,1.40
2022-11-24T12:39:34.472Z,2.72
2022-11-24T12:44:47.399Z,1.77
2022-11-24T12:50:12.360Z,1.17
2022-11-24T12:55:22.328Z,2.67
2022-11-24T13:00:28.809Z,3.08
2022-11-24T13:05:44.327Z,3.58
2022-11-24T13:10:55.886Z,2.50
2022-11-24T13:21:41.670Z,3.10
2022-11-24T13:26:54.357Z,3.20
2022-11-24T13:32:09.993Z,2.75
2022-11-24T13:37:28.899Z,2.75
2022-11-24T13:42:57.067Z,2.42
2022-11-24T13:48:02.003Z,2.25
2022-11-24T13:53:18.747Z,1.42
2022-11-24T13:58:29.255Z,1.48
2022-11-24T14:04:28.160Z,1.70
2022-11-24T14:09:35.683Z,2.20
2022-11-24T14:14:39.633Z,1.95
2022-11-24T14:19:45.644Z,1.90
2022-11-24T14:24:54.722Z,1.60
2022-11-24T14:30:10.362Z,1.75
2022-11-24T14:35:29.040Z,1.92
2022-11-24T14:40:41.628Z,1.95
2022-11-24T14:45:54.263Z,2.17
2022-11-24T14:51:20.159Z,2.00
2022-11-24T14:56:33.286Z,2.35
2022-11-24T15:01:36.942Z,2.40
2022-11-24T15:06:42.476Z,2.00
2022-11-24T15:11:46.269Z,1.88
2022-11-24T15:16:49.755Z,1.80
2022-11-24T15:21:53.181Z,2.10
2022-11-24T15:27:00.957Z,2.10
2022-11-24T15:32:14.396Z,2.33
2022-11-24T15:37:17.931Z,2.03
2022-11-24T15:42:21.896Z,2.00
2022-11-24T15:47:26.586Z,2.92
2022-11-24T15:52:30.900Z,1.95
2022-11-24T15:57:35.273Z,1.63
2022-11-24T16:02:38.676Z,2.60
2022-11-24T16:07:42.292Z,2.15
2022-11-24T16:12:45.674Z,1.58
2022-11-24T16:17:49.106Z,2.47
2022-11-24T16:22:52.417Z,2.15
2022-11-24T16:27:55.861Z,2.40
2022-11-24T16:33:05.560Z,1.85
2022-11-24T16:38:16.685Z,2.13
2022-11-24T16:43:20.402Z,2.22
2022-11-24T16:48:24.490Z,2.05
2022-11-24T16:53:27.974Z,3.00
2022-11-24T16:58:31.527Z,3.28
2022-11-24T17:03:35.658Z,3.00
2022-11-24T17:08:41.158Z,2.72
2022-11-24T17:13:46.801Z,2.25
2022-11-24T17:18:52.119Z,2.92
2022-11-24T17:23:59.488Z,2.22
2022-11-24T17:29:03.830Z,2.53
2022-11-24T17:34:12.233Z,3.22
2022-11-24T17:39:19.125Z,2.40
2022-11-24T17:44:30.609Z,2.90
2022-11-24T17:49:34.021Z,2.63
2022-11-24T17:54:46.239Z,2.40
2022-11-24T17:59:50.625Z,2.65
2022-11-24T18:04:55.292Z,2.78
2022-11-24T18:09:58.697Z,2.53
2022-11-24T18:15:04.836Z,3.22
2022-11-24T18:20:09.865Z,3.00
2022-11-24T18:25:13.429Z,2.20
2022-11-24T18:30:18.370Z,3.30
2022-11-24T18:35:25.247Z,2.80
2022-11-24T18:40:28.627Z,4.38
2022-11-24T18:45:32.446Z,3.13
2022-11-24T18:50:36.023Z,2.70
2022-11-24T18:55:39.448Z,2.72
2022-11-24T19:00:43.002Z,3.90
2022-11-24T19:05:46.778Z,3.80
2022-11-24T19:10:50.241Z,3.65
2022-11-24T19:15:53.547Z,2.85
2022-11-24T19:20:57.232Z,3.25
2022-11-24T19:26:04.925Z,3.55
2022-11-24T19:31:11.401Z,2.80
2022-11-24T19:36:20.881Z,2.60
2022-11-24T19:41:27.335Z,2.80
2022-11-24T19:46:31.163Z,4.75
2022-11-24T19:51:37.440Z,3.20
2022-11-24T19:56:41.425Z,3.20
2022-11-24T20:01:46.395Z,3.00
2022-11-24T20:06:49.935Z,2.22
2022-11-24T20:11:53.145Z,2.70
2022-11-24T20:16:57.204Z,3.75
2022-11-24T20:22:00.957Z,4.90
2022-11-24T20:27:04.554Z,3.80
2022-11-24T20:32:08.144Z,3.63
2022-11-24T20:37:11.616Z,3.15
2022-11-24T20:42:16.198Z,2.92
2022-11-24T20:47:19.713Z,3.47
2022-11-24T20:52:23.648Z,3.00
2022-11-24T20:57:27.034Z,2.90
2022-11-24T21:02:31.876Z,3.08
2022-11-24T21:07:38.746Z,3.15
2022-11-24T21:12:42.070Z,2.85
2022-11-24T21:17:45.392Z,3.33
2022-11-24T21:27:52.792Z,3.42
2022-11-24T21:33:00.119Z,3.97
2022-11-24T21:38:04.114Z,3.50
2022-11-24T21:43:08.383Z,3.33
2022-11-24T21:48:11.727Z,3.47
2022-11-24T22:03:23.692Z,3.20
2022-11-24T22:13:31.252Z,4.40
2022-11-24T22:18:36.684Z,4.10
2022-11-24T22:23:40.799Z,4.22
2022-11-24T22:28:45.366Z,4.85
2022-11-24T22:33:49.936Z,4.47
2022-11-24T22:39:01.187Z,4.30
2022-11-24T22:44:05.597Z,4.10
2022-11-24T22:49:10.331Z,4.25
2022-11-24T22:54:13.829Z,4.65
2022-11-24T22:59:17.222Z,4.38
2022-11-24T23:04:20.629Z,5.85
2022-11-24T23:09:25.412Z,4.38
2022-11-24T23:14:33.443Z,5.57
2022-11-24T23:19:37.149Z,4.90
2022-11-24T23:24:40.626Z,5.22
2022-11-24T23:29:43.939Z,4.70
2022-11-24T23:34:47.729Z,4.82
2022-11-24T23:39:51.036Z,4.68
2022-11-24T23:55:03.378Z,4.53
